Arboga, California
Current Conditions -  °F | °C
As of 9:28 PM on Tuesday 25 Nov 2014 (Local Time) from KBAB Reporting Station
Clear Clear  
Wind Chill:   Ceiling: Unl
Heat Index:   Visibility: 9mi
Dew Point:   Wind: 2mph
Humidity: 93%   Direction: 210°SSW
Pressure: 30.37"   Gusts: NA
Location:  39.0904°N, 121.552°W
Report Text: KBAB 260528Z AUTO 21002KT 9SM CLR 08/07 A3037 RMK AO2
Loading
Personal Weather Stations






























Interactive Weather Map New forecast layout! Learn more

10-Day Weather Forecast

Advertisements
Track Severe Weather on mobile